KHND

Henderson Executive Airport

Las Vegas, Nevada, USA
METAR KHND 171356Z 19003KT 10SM CLR 06/M05 A3013 RMK AO2 SLP207 T00611050 $
Observed Flight Rules
Dec-17 @ 13:56 UTC (52 minutes ago) Visual Flight Rules
Wind Visibility Clouds
190° at 3 knots 10 miles
  • Clear skies
Temperatures Readings
Current 6°C / 43°F
Dewpoint -5°C / 23°F
Humidity 46%
Altimeter 30.13" Hg
Pressure 1020.7 hPa
Elevation 749
METAR KHND 171356Z 19003KT 10SM CLR 06/M05 A3013 RMK AO2 SLP207 T00611050 $
Observed Flight Rules
Dec-17 @ 13:56 UTC
(52 minutes ago)
VFR
Wind Visibility
190° at 3 knots 10 miles
Clouds
  • Clear skies
Temperature Dewpoint
6°C / 43°F -5°C / 23°F
Humidity Altimeter Pressure
46% 30.13" Hg 1020.7 hPa